Time;durP1;ratioP1;P1;durP2;ratioP2;P2;SDS_P1;SDS_P2;PMS_P1;PMS_P2;Temp;Humidity;BMP_temperature;BMP_pressure;BME280_temperature;BME280_humidity;BME280_pressure;Samples;Min_cycle;Max_cycle;Signal;HPM_P1;HPM_P2
2023/02/08 11:17:46;;;;;;;137.10;43.90;;;;;;;;;;661052;23;21653;-95
2023/02/08 11:20:21;;;;;;;52.67;23.92;;;;;;;;;;4921325;29;20067;-94
2023/02/08 11:22:48;;;;;;;45.20;22.70;;;;;;;;;;4923655;29;20032;-95
2023/02/08 11:25:30;;;;;;;37.22;20.73;;;;;;;;;;4905913;29;20028;-94
2023/02/08 11:27:59;;;;;;;42.08;21.67;;;;;;;;;;4908723;29;20028;-95
2023/02/08 11:30:25;;;;;;;42.80;22.85;;;;;;;;;;4922296;29;20036;-96
2023/02/08 11:33:10;;;;;;;45.58;23.02;;;;;;;;;;4905451;29;20044;-92
2023/02/08 11:35:36;;;;;;;37.33;20.75;;;;;;;;;;4923215;29;20491;-95
2023/02/08 11:38:02;;;;;;;42.20;22.08;;;;;;;;;;4907350;29;20028;-94
2023/02/08 11:43:34;;;;;;;66.32;30.27;;;;;;;;;;4922470;29;20450;-95
2023/02/08 11:46:02;;;;;;;91.03;41.53;;;;;;;;;;4906073;29;20380;-94
2023/02/08 11:48:48;;;;;;;44.50;23.58;;;;;;;;;;4925184;29;20036;-96
2023/02/08 11:51:23;;;;;;;40.38;21.50;;;;;;;;;;4927744;29;20044;-95
2023/02/08 11:53:49;;;;;;;45.35;23.27;;;;;;;;;;4921364;29;20032;-94
2023/02/08 11:56:23;;;;;;;37.00;21.00;;;;;;;;;;4904759;29;20087;-94
2023/02/08 11:58:56;;;;;;;36.65;21.00;;;;;;;;;;4904510;29;20063;-94
2023/02/08 12:01:25;;;;;;;42.47;22.20;;;;;;;;;;4921567;29;20049;-95
2023/02/08 12:03:51;;;;;;;35.88;20.73;;;;;;;;;;4922499;29;20032;-95
2023/02/08 12:06:39;;;;;;;46.08;23.92;;;;;;;;;;4906480;29;20028;-94
2023/02/08 12:09:05;;;;;;;38.80;21.25;;;;;;;;;;4925224;29;20028;-95
2023/02/08 12:11:35;;;;;;;33.95;19.33;;;;;;;;;;4908545;29;20029;-94
2023/02/08 12:14:20;;;;;;;47.45;22.20;;;;;;;;;;4905391;29;20406;-92
2023/02/08 12:16:52;;;;;;;43.65;24.10;;;;;;;;;;4928443;29;20028;-96
2023/02/08 12:19:37;;;;;;;54.25;24.90;;;;;;;;;;4927016;29;20056;-95
2023/02/08 12:22:15;;;;;;;42.60;21.88;;;;;;;;;;4907899;29;20033;-95
2023/02/08 12:24:41;;;;;;;36.65;20.17;;;;;;;;;;4911182;29;20443;-94
2023/02/08 12:27:14;;;;;;;32.63;17.30;;;;;;;;;;4920846;29;20494;-94
2023/02/08 12:29:41;;;;;;;;;;;;;;;;;;4905736;29;20107;-96
2023/02/08 12:32:23;;;;;;;30.23;15.55;;;;;;;;;;4905133;29;20310;-94
2023/02/08 12:34:52;;;;;;;32.47;17.08;;;;;;;;;;4906447;29;20032;-96
2023/02/08 12:43:02;;;;;;;23.13;12.82;;;;;;;;;;4923195;29;20058;-88
2023/02/08 12:45:49;;;;;;;33.70;17.38;;;;;;;;;;4907276;29;20118;-88
2023/02/08 12:48:21;;;;;;;33.58;18.52;;;;;;;;;;4924860;29;20107;-88
2023/02/08 12:50:57;;;;;;;38.72;18.90;;;;;;;;;;4924536;29;20032;-88
2023/02/08 12:53:24;;;;;;;37.45;19.27;;;;;;;;;;4924590;29;20475;-88
2023/02/08 12:55:51;;;;;;;37.50;19.05;;;;;;;;;;4924469;29;20032;-89
2023/02/08 12:58:17;;;;;;;48.05;28.05;;;;;;;;;;4907642;29;20028;-88
2023/02/08 13:00:43;;;;;;;93.22;50.08;;;;;;;;;;4907636;29;20030;-89
2023/02/08 13:03:19;;;;;;;61.25;32.92;;;;;;;;;;4907677;29;20028;-89
2023/02/08 13:05:47;;;;;;;79.50;40.03;;;;;;;;;;4924268;29;20103;-88
2023/02/08 13:08:13;;;;;;;47.03;23.73;;;;;;;;;;4923890;29;20027;-87
2023/02/08 13:10:40;;;;;;;92.50;46.20;;;;;;;;;;4924069;29;20028;-89
2023/02/08 13:13:13;;;;;;;52.63;26.42;;;;;;;;;;4923998;29;20028;-88
2023/02/08 13:15:43;;;;;;;54.38;27.65;;;;;;;;;;4924131;29;20412;-90
2023/02/08 13:18:12;;;;;;;41.03;20.80;;;;;;;;;;4924018;29;20048;-89
2023/02/08 13:20:38;;;;;;;47.20;22.13;;;;;;;;;;4923731;29;20068;-89
2023/02/08 13:23:10;;;;;;;87.40;34.30;;;;;;;;;;4907368;29;20024;-90
2023/02/08 13:25:36;;;;;;;87.90;34.83;;;;;;;;;;4923746;29;20399;-87
2023/02/08 13:28:03;;;;;;;78.70;34.05;;;;;;;;;;4923786;29;20030;-87
2023/02/08 13:30:31;;;;;;;111.40;65.03;;;;;;;;;;4923690;29;20166;-87
2023/02/08 13:32:57;;;;;;;242.85;98.38;;;;;;;;;;4924141;29;20080;-84
2023/02/08 13:35:28;;;;;;;65.50;32.55;;;;;;;;;;4923457;29;20052;-84
2023/02/08 13:38:02;;;;;;;103.07;46.28;;;;;;;;;;4923341;29;20103;-84
2023/02/08 13:40:30;;;;;;;189.15;69.82;;;;;;;;;;4900711;29;20052;-88
2023/02/08 13:43:00;;;;;;;419.50;165.60;;;;;;;;;;4904796;29;20039;-84
2023/02/08 13:45:35;;;;;;;1279.57;554.58;;;;;;;;;;4904318;29;20029;-82
2023/02/08 13:48:02;;;;;;;322.27;121.70;;;;;;;;;;4921921;29;20462;-83
2023/02/08 13:50:34;;;;;;;683.63;302.40;;;;;;;;;;4923399;29;20063;-83
2023/02/08 13:53:01;;;;;;;450.70;185.80;;;;;;;;;;4922952;29;20032;-82
2023/02/08 13:55:34;;;;;;;187.95;71.28;;;;;;;;;;4923294;29;20063;-84
2023/02/08 13:58:04;;;;;;;246.02;96.00;;;;;;;;;;4905888;29;20036;-83
2023/02/08 14:00:31;;;;;;;266.05;109.50;;;;;;;;;;4922852;29;20039;-82
2023/02/08 14:02:58;;;;;;;231.90;98.82;;;;;;;;;;4922862;29;20047;-84
2023/02/08 14:05:33;;;;;;;118.88;52.20;;;;;;;;;;4923127;29;20083;-84
2023/02/08 14:08:01;;;;;;;87.75;39.50;;;;;;;;;;4922827;29;20024;-81
2023/02/08 14:10:38;;;;;;;102.45;45.88;;;;;;;;;;4906042;29;20134;-84
2023/02/08 14:13:08;;;;;;;427.70;202.05;;;;;;;;;;4918099;29;20032;-93
2023/02/08 14:15:38;;;;;;;59.97;26.42;;;;;;;;;;4908180;29;20032;-92
2023/02/08 14:18:05;;;;;;;80.63;34.00;;;;;;;;;;4889066;29;20036;-93
2023/02/08 14:20:35;;;;;;;72.15;32.55;;;;;;;;;;4899348;29;20044;-93
2023/02/08 14:23:05;;;;;;;65.00;32.13;;;;;;;;;;4923204;29;20035;-93
2023/02/08 14:25:37;;;;;;;109.05;48.25;;;;;;;;;;4923053;29;20024;-93
2023/02/08 14:28:05;;;;;;;90.72;37.05;;;;;;;;;;4905445;29;20042;-92
2023/02/08 14:30:32;;;;;;;87.60;38.63;;;;;;;;;;4893800;29;20033;-93
2023/02/08 14:33:07;;;;;;;103.03;43.75;;;;;;;;;;4902356;29;20076;-92
2023/02/08 14:35:39;;;;;;;77.45;32.58;;;;;;;;;;4902452;29;20435;-94
2023/02/08 14:38:18;;;;;;;69.15;31.75;;;;;;;;;;4908437;29;20037;-92
2023/02/08 14:46:51;;;;;;;320.13;141.57;;;;;;;;;;4903674;29;20027;-90
2023/02/08 14:49:19;;;;;;;71.53;33.40;;;;;;;;;;4903798;29;20068;-92
2023/02/08 14:51:48;;;;;;;129.60;56.97;;;;;;;;;;4904932;29;20037;-91
2023/02/08 14:54:36;;;;;;;83.07;39.03;;;;;;;;;;4903588;29;20032;-93
2023/02/08 14:57:21;;;;;;;203.52;90.07;;;;;;;;;;4922456;29;20047;-92
2023/02/08 14:59:48;;;;;;;57.33;27.35;;;;;;;;;;4922590;29;20039;-91
2023/02/08 15:02:19;;;;;;;213.30;90.50;;;;;;;;;;4922419;29;20036;-91
2023/02/08 15:04:45;;;;;;;103.15;45.67;;;;;;;;;;4901896;29;20099;-91
2023/02/08 15:07:21;;;;;;;100.20;43.65;;;;;;;;;;4900971;29;20032;-92
2023/02/08 15:09:47;;;;;;;108.75;49.92;;;;;;;;;;4904970;29;20047;-92
2023/02/08 15:12:19;;;;;;;67.63;32.60;;;;;;;;;;4922134;29;20024;-91
2023/02/08 15:14:45;;;;;;;65.15;30.95;;;;;;;;;;4922021;29;20031;-93
2023/02/08 15:17:20;;;;;;;98.93;45.28;;;;;;;;;;4921605;29;20071;-91
2023/02/08 15:19:46;;;;;;;101.95;43.80;;;;;;;;;;4921503;29;20055;-89
2023/02/08 15:22:29;;;;;;;151.93;63.75;;;;;;;;;;4920097;29;20059;-89
2023/02/08 15:24:55;;;;;;;;;;;;;;;;;;4922494;29;20161;-89
2023/02/08 15:34:27;;;;;;;129.93;57.75;;;;;;;;;;4908068;29;20077;-91
2023/02/08 15:36:54;;;;;;;131.25;61.33;;;;;;;;;;4887072;29;20105;-90
2023/02/08 15:39:20;;;;;;;93.65;50.08;;;;;;;;;;4921878;29;20031;-89
2023/02/08 15:44:50;;;;;;;123.13;56.88;;;;;;;;;;4913478;29;20108;-90
2023/02/08 15:47:38;;;;;;;194.13;78.85;;;;;;;;;;4912882;29;20068;-89
2023/02/08 15:50:06;;;;;;;226.85;94.47;;;;;;;;;;4906103;29;20044;-89
2023/02/08 15:52:34;;;;;;;185.75;77.28;;;;;;;;;;4911300;29;20020;-91
2023/02/08 15:55:00;;;;;;;163.48;72.72;;;;;;;;;;4908772;29;20107;-90
2023/02/08 15:57:42;;;;;;;164.63;77.65;;;;;;;;;;4908459;29;20020;-90
2023/02/08 16:00:32;;;;;;;162.23;72.95;;;;;;;;;;4908064;29;20101;-90
2023/02/08 16:03:05;;;;;;;227.93;98.85;;;;;;;;;;4847088;29;20367;-90
2023/02/08 16:05:32;;;;;;;237.32;101.93;;;;;;;;;;4846525;29;20037;-90
2023/02/08 16:07:58;;;;;;;249.15;105.53;;;;;;;;;;4845356;29;20082;-88
2023/02/08 16:10:27;;;;;;;255.00;109.65;;;;;;;;;;4844394;29;20038;-90
2023/02/08 16:18:59;;;;;;;;;;;;;;;;;;4849333;29;20053;-93
2023/02/08 16:21:25;;;;;;;312.80;126.10;;;;;;;;;;4859945;29;19916;-92
2023/02/08 16:23:52;;;;;;;336.55;135.63;;;;;;;;;;4868435;29;20033;-91
2023/02/08 16:26:21;;;;;;;331.67;135.48;;;;;;;;;;4854235;29;20334;-90
2023/02/08 16:29:13;;;;;;;240.02;116.18;;;;;;;;;;4850932;29;20124;-92
2023/02/08 16:31:39;;;;;;;226.57;106.47;;;;;;;;;;4866015;29;20078;-92
2023/02/08 16:34:07;;;;;;;221.63;99.63;;;;;;;;;;4867178;29;20132;-91
2023/02/08 16:36:39;;;;;;;196.85;88.15;;;;;;;;;;4851530;29;20321;-90
2023/02/08 16:39:15;;;;;;;205.82;90.97;;;;;;;;;;4872735;29;20040;-92
2023/02/08 16:42:01;;;;;;;222.07;98.00;;;;;;;;;;4905881;29;20068;-92
2023/02/08 16:44:31;;;;;;;300.88;120.32;;;;;;;;;;4888620;29;20061;-91
2023/02/08 16:46:58;;;;;;;354.75;140.05;;;;;;;;;;4914424;29;20115;-92
2023/02/08 16:49:25;;;;;;;322.13;130.07;;;;;;;;;;4900527;29;20415;-92
2023/02/08 16:51:55;;;;;;;312.65;124.95;;;;;;;;;;4905468;29;20039;-91
2023/02/08 16:54:23;;;;;;;318.30;129.50;;;;;;;;;;4906411;29;20063;-92
2023/02/08 16:56:54;;;;;;;322.98;129.00;;;;;;;;;;4897242;29;20487;-91
2023/02/08 16:59:20;;;;;;;322.30;129.52;;;;;;;;;;4917548;29;20025;-90
2023/02/08 17:01:48;;;;;;;353.70;136.25;;;;;;;;;;4919825;29;20404;-91
2023/02/08 17:04:16;;;;;;;357.60;139.65;;;;;;;;;;4905272;29;20029;-92
2023/02/08 17:06:43;;;;;;;361.55;142.40;;;;;;;;;;4905472;29;20032;-92
2023/02/08 17:09:10;;;;;;;335.45;137.25;;;;;;;;;;4905596;29;20321;-93
2023/02/08 17:15:19;;;;;;;385.27;159.95;;;;;;;;;;4913959;29;20052;-92
2023/02/08 17:17:45;;;;;;;412.17;172.07;;;;;;;;;;4912480;29;20356;-92
2023/02/08 17:20:26;;;;;;;430.90;188.38;;;;;;;;;;4906943;29;20062;-92
2023/02/08 17:22:53;;;;;;;401.90;176.93;;;;;;;;;;4907174;29;20044;-92
2023/02/08 17:25:19;;;;;;;357.25;154.40;;;;;;;;;;4906412;29;20024;-91
2023/02/08 17:27:52;;;;;;;305.55;138.35;;;;;;;;;;4906604;29;20032;-93
2023/02/08 17:33:22;;;;;;;549.58;182.23;;;;;;;;;;4905069;29;20105;-91
2023/02/08 17:35:49;;;;;;;554.67;185.85;;;;;;;;;;4888194;29;20128;-91
2023/02/08 17:38:16;;;;;;;526.17;177.95;;;;;;;;;;4888280;29;20035;-91
2023/02/08 17:40:44;;;;;;;473.13;157.05;;;;;;;;;;4904926;29;20036;-92
2023/02/08 17:43:11;;;;;;;484.50;155.32;;;;;;;;;;4904519;29;20021;-92
2023/02/08 17:45:38;;;;;;;456.27;146.57;;;;;;;;;;4905665;29;20016;-93
2023/02/08 17:48:04;;;;;;;395.15;131.43;;;;;;;;;;4916024;29;20028;-91
2023/02/08 17:50:31;;;;;;;356.40;122.63;;;;;;;;;;4905123;29;20037;-91
2023/02/08 17:52:57;;;;;;;447.90;136.80;;;;;;;;;;4916534;29;20419;-92
2023/02/08 17:55:23;;;;;;;618.95;168.90;;;;;;;;;;4906821;29;20052;-92
2023/02/08 17:57:49;;;;;;;664.65;175.23;;;;;;;;;;4914208;29;20112;-92
2023/02/08 18:00:17;;;;;;;668.67;184.18;;;;;;;;;;4921470;29;20028;-92
2023/02/08 18:05:47;;;;;;;367.05;93.78;;;;;;;;;;4923654;29;20458;-93
2023/02/08 18:08:13;;;;;;;207.15;65.97;;;;;;;;;;4906486;29;20040;-91
2023/02/08 18:10:39;;;;;;;141.15;51.78;;;;;;;;;;4897556;29;20032;-91
2023/02/08 18:13:05;;;;;;;102.03;48.90;;;;;;;;;;4904387;29;20028;-93
2023/02/08 18:15:31;;;;;;;81.90;43.78;;;;;;;;;;4904545;29;20133;-92
2023/02/08 18:20:45;;;;;;;155.60;57.05;;;;;;;;;;4968353;23;20343;-91
2023/02/08 18:23:12;;;;;;;134.02;54.45;;;;;;;;;;4942171;29;20027;-92
2023/02/08 18:25:39;;;;;;;123.18;61.22;;;;;;;;;;4925072;29;20024;-93
2023/02/08 18:28:06;;;;;;;157.63;80.78;;;;;;;;;;4923381;29;20024;-93
2023/02/08 18:30:32;;;;;;;174.45;96.78;;;;;;;;;;4913535;29;20024;-92
2023/02/08 18:32:59;;;;;;;175.45;103.22;;;;;;;;;;4922779;29;20360;-92
2023/02/08 18:35:25;;;;;;;167.63;98.70;;;;;;;;;;4906235;29;20068;-93
2023/02/08 18:50:08;;;;;;;104.78;55.95;;;;;;;;;;4993075;23;20055;-92
2023/02/08 18:52:34;;;;;;;108.55;58.50;;;;;;;;;;4942439;29;20034;-90
2023/02/08 18:55:00;;;;;;;100.57;53.40;;;;;;;;;;4940942;29;20071;-91
2023/02/08 19:00:22;;;;;;;126.15;54.90;;;;;;;;;;4976916;23;20055;-92
2023/02/08 19:02:49;;;;;;;144.35;58.63;;;;;;;;;;4905308;29;20035;-91
2023/02/08 19:08:00;;;;;;;197.65;80.25;;;;;;;;;;4913897;29;20335;-91
2023/02/08 19:10:28;;;;;;;227.40;91.47;;;;;;;;;;4905435;29;20119;-91
